Portada
METAR-TAF:

METAR-TAF

Aeroports :

Aeroport Internacional de Ras al-Khaimah

Ras al-Khaimah, Emirats Àrabs Units

latitud: 25-37N, longitud: 055-56E, altitud: 31 m

Observació

L'informe es va fer fa 13 minuts, a les 08:00 UTC
Vent 16 kt del Est/Sud-Est
Temperatura 41°C
Humitat 41%
Pressió 1001 hPa
Visibilitat: 8000 m

METAR: OMRK 250800Z 12016KT 8000 NSC 41/25 Q1001 A2957

Hora: 12:13 (08:13 UTC)

Pronòstic

L'informe es va fer fa 3 hores i 14 minuts, a les 04:59 UTC
Pronòstic vàlid del 25 a les 06 UTC al 26 a les 12 UTC
Vent 9 kt del Est
Visibilitat: 8000 m
Probabilitat 40%
l' 25 a les 08 UTC al 25 a les 15 UTC
Vent 10 kt del Nord
Evolucionant progressivament
l' 26 a les 07 UTC al 26 a les 09 UTC
Vent 12 kt del Nord/Nord-Oest

TAF: OMRK 250459Z 2506/2612 10009KT 8000 NSC PROB40 2508/2515 35010KT BECMG 2607/2609 34012KT

Observacions i pronòstics meteorològics de més de 4000 aeroports (METAR i TAF).

Les estacions disponibles són els punts grocs i vermells al mapa.

Posi el ratolí al punt desitjat per veure el nom de l'estació.

Feu clic per veure les observacions i els pronòstics meteorològics.

Per canviar el mapa: feu clic els botons verds amb una creu de color negre per apropar; al botó verd amb un guió per allunyar la imatge; o en les fletxes verdes per a mapes adjacents.


METAR-TAF: